Gravel Ridge, Arkansas
Current Conditions -  °F | °C
As of 10:43 PM on Thursday 18 Dec 2014 (Local Time) from KLRF Reporting Station
Overcast Overcast  
Wind Chill:   Ceiling: 500
Heat Index:   Visibility: 9mi
Dew Point:   Wind: 5mph
Humidity: 93%   Direction: 40°NE
Pressure: 30.25"   Gusts: NA
Location:  34.9092°N, 92.1561°W
Report Text: KLRF 190443Z AUTO 04004KT 9SM OVC005 05/04 A3025 RMK AO2
Loading
Personal Weather Stations






























Interactive Weather Map New forecast layout! Learn more

10-Day Weather Forecast

Advertisements
Track Severe Weather on mobile